createdAt,value
2019-05-12T00:00:40.610Z,99975.14
2019-05-12T00:03:08.756Z,99979.73
2019-05-12T00:05:38.276Z,99980.88
2019-05-12T00:08:08.274Z,99986.91
2019-05-12T00:10:35.838Z,99986.72
2019-05-12T00:13:34.342Z,99991.15
2019-05-12T00:16:02.162Z,99987.41
2019-05-12T00:18:29.925Z,99988.88
2019-05-12T00:20:59.914Z,99992.05
2019-05-12T00:23:30.999Z,99990.82
2019-05-12T00:25:58.830Z,99992.00
2019-05-12T00:28:28.483Z,99997.39
2019-05-12T00:30:58.034Z,100001.49
2019-05-12T00:33:28.901Z,100001.49
2019-05-12T00:35:58.660Z,100002.65
2019-05-12T00:38:27.805Z,100003.95
2019-05-12T00:40:58.233Z,100009.73
2019-05-12T00:43:27.950Z,100018.41
2019-05-12T00:45:55.555Z,100022.81
2019-05-12T00:48:23.344Z,100020.52
2019-05-12T00:50:51.119Z,100022.14
2019-05-12T00:53:19.120Z,100016.91
2019-05-12T00:55:47.964Z,100027.25
2019-05-12T00:58:15.766Z,100028.58
2019-05-12T01:00:43.531Z,100027.89
2019-05-12T01:03:11.364Z,100031.64
2019-05-12T01:05:39.285Z,100032.30
2019-05-12T01:08:09.015Z,100038.41
2019-05-12T01:10:38.947Z,100041.20
2019-05-12T01:13:08.553Z,100047.59
2019-05-12T01:15:37.808Z,100051.80
2019-05-12T01:18:06.196Z,100055.23
2019-05-12T01:20:33.968Z,100046.48
2019-05-12T01:23:02.185Z,100050.23
2019-05-12T01:25:29.969Z,100046.77
2019-05-12T01:27:58.910Z,100043.77
2019-05-12T01:30:28.540Z,100054.11
2019-05-12T01:32:58.060Z,100058.56
2019-05-12T01:35:28.140Z,100054.07
2019-05-12T01:38:01.055Z,100060.60
2019-05-12T01:40:28.230Z,100063.83
2019-05-12T01:42:57.946Z,100067.92
2019-05-12T01:45:25.013Z,100078.73
2019-05-12T01:47:52.788Z,100080.19
2019-05-12T01:50:20.537Z,100086.59
2019-05-12T01:53:03.590Z,100081.98
2019-05-12T01:55:31.363Z,100084.61
2019-05-12T01:57:59.106Z,100088.34
2019-05-12T02:00:28.310Z,100086.03
2019-05-12T02:02:58.513Z,100088.97
2019-05-12T02:05:28.267Z,100087.13
2019-05-12T02:07:58.361Z,100095.11
2019-05-12T02:10:28.676Z,100096.03
2019-05-12T02:12:56.153Z,100102.72
2019-05-12T02:15:23.898Z,100116.42
2019-05-12T02:17:51.659Z,100123.62
2019-05-12T02:20:19.850Z,100118.47
2019-05-12T02:22:47.870Z,100127.26
2019-05-12T02:25:18.418Z,100133.89
2019-05-12T02:27:47.684Z,100135.44
2019-05-12T02:30:20.214Z,100143.55
2019-05-12T02:32:53.248Z,100147.56
2019-05-12T02:35:17.952Z,100149.89
2019-05-12T02:37:45.700Z,100148.86
2019-05-12T02:40:15.531Z,100152.56
2019-05-12T02:42:46.414Z,100155.44
2019-05-12T02:45:16.186Z,100155.59
2019-05-12T02:47:45.607Z,100161.95
2019-05-12T02:50:24.861Z,100163.58
2019-05-12T02:52:54.603Z,100171.23
2019-05-12T02:55:25.676Z,100176.58
2019-05-12T02:57:55.197Z,100185.52
2019-05-12T03:00:24.216Z,100184.30
2019-05-12T03:02:54.761Z,100186.41
2019-05-12T03:05:24.843Z,100193.44
2019-05-12T03:07:55.446Z,100192.87
2019-05-12T03:10:25.284Z,100191.36
2019-05-12T03:12:55.067Z,100196.77
2019-05-12T03:15:25.112Z,100197.56
2019-05-12T03:17:54.574Z,100207.81
2019-05-12T03:20:24.237Z,100211.64
2019-05-12T03:22:55.143Z,100213.80
2019-05-12T03:25:26.091Z,100215.16
2019-05-12T03:27:54.317Z,100224.02
2019-05-12T03:30:21.174Z,100225.56
2019-05-12T03:32:48.912Z,100228.28
2019-05-12T03:35:17.870Z,100231.78
2019-05-12T03:37:46.303Z,100241.80
2019-05-12T03:40:14.642Z,100245.34
2019-05-12T03:42:44.435Z,100242.73
2019-05-12T03:45:14.930Z,100247.84
2019-05-12T03:47:45.231Z,100258.27
2019-05-12T03:50:14.545Z,100266.95
2019-05-12T03:52:44.723Z,100267.00
2019-05-12T03:55:29.626Z,100267.93
2019-05-12T03:57:40.637Z,100265.88
2019-05-12T04:00:08.416Z,100270.13
2019-05-12T04:02:36.168Z,100274.94
2019-05-12T04:05:05.396Z,100282.61
2019-05-12T04:07:34.582Z,100284.78
2019-05-12T04:10:05.189Z,100287.46
2019-05-12T04:12:34.575Z,100293.45
2019-05-12T04:15:05.123Z,100291.27
2019-05-12T04:17:34.710Z,100306.71
2019-05-12T04:20:04.500Z,100319.41
2019-05-12T04:22:31.298Z,100322.80
2019-05-12T04:24:59.493Z,100328.95
2019-05-12T04:27:27.296Z,100337.09
2019-05-12T04:29:55.047Z,100339.34
2019-05-12T04:32:24.990Z,100349.68
2019-05-12T04:34:55.071Z,100352.48
2019-05-12T04:37:24.837Z,100356.74
2019-05-12T04:39:55.220Z,100365.52
2019-05-12T04:42:25.175Z,100365.63
2019-05-12T04:44:55.034Z,100374.45
2019-05-12T04:47:25.067Z,100376.39
2019-05-12T04:49:54.473Z,100380.47
2019-05-12T04:52:24.634Z,100394.98
2019-05-12T04:54:51.163Z,100399.08
2019-05-12T04:57:21.114Z,100405.97
2019-05-12T04:59:50.679Z,100402.41
2019-05-12T05:02:20.331Z,100410.73
2019-05-12T05:04:49.742Z,100416.87
2019-05-12T05:07:17.481Z,100420.30
2019-05-12T05:09:47.284Z,100424.53
2019-05-12T05:12:15.249Z,100424.98
2019-05-12T05:14:44.632Z,100434.79
2019-05-12T05:17:14.319Z,100439.05
2019-05-12T05:19:44.105Z,100448.83
2019-05-12T05:22:23.729Z,100457.11
2019-05-12T05:24:53.586Z,100487.86
2019-05-12T05:27:21.407Z,100493.59
2019-05-12T05:29:49.198Z,100497.13
2019-05-12T05:32:16.911Z,100490.30
2019-05-12T05:34:46.198Z,100489.16
2019-05-12T05:37:14.656Z,100495.80
2019-05-12T05:39:48.319Z,100495.52
2019-05-12T05:42:13.512Z,100496.12
2019-05-12T05:44:43.374Z,100494.92
2019-05-12T05:47:10.989Z,100491.03
2019-05-12T05:49:38.775Z,100495.19
2019-05-12T05:52:06.807Z,100503.01
2019-05-12T05:54:36.362Z,100505.80
2019-05-12T05:57:06.240Z,100502.79
2019-05-12T05:59:36.682Z,100503.22
2019-05-12T06:02:04.934Z,100508.56
2019-05-12T06:04:34.137Z,100507.85
2019-05-12T06:07:04.124Z,100514.44
2019-05-12T06:09:33.931Z,100516.87
2019-05-12T06:12:07.553Z,100505.63
2019-05-12T06:14:34.042Z,100516.33
2019-05-12T06:17:01.655Z,100512.33
2019-05-12T06:19:29.431Z,100508.56
2019-05-12T06:21:57.201Z,100508.16
2019-05-12T06:24:27.712Z,100505.13
2019-05-12T06:27:00.514Z,100514.27
2019-05-12T06:29:25.296Z,100518.59
2019-05-12T06:31:54.307Z,100513.07
2019-05-12T06:34:23.871Z,100513.14
2019-05-12T06:36:56.450Z,100515.66
2019-05-12T06:39:23.546Z,100518.13
2019-05-12T06:41:55.169Z,100513.36
2019-05-12T06:44:24.071Z,100518.77
2019-05-12T06:46:53.471Z,100520.50
2019-05-12T06:49:24.163Z,100527.94
2019-05-12T06:52:01.600Z,100526.42
2019-05-12T06:54:26.550Z,100534.46
2019-05-12T06:56:57.796Z,100536.98
2019-05-12T06:59:24.004Z,100542.66
2019-05-12T07:01:56.125Z,100541.50
2019-05-12T07:04:23.946Z,100538.52
2019-05-12T07:06:56.189Z,100549.61
2019-05-12T07:09:25.165Z,100557.91
2019-05-12T07:11:58.784Z,100555.23
2019-05-12T07:14:23.237Z,100556.69
2019-05-12T07:17:01.473Z,100568.19
2019-05-12T07:19:25.597Z,100567.52
2019-05-12T07:22:21.669Z,100572.50
2019-05-12T07:24:40.976Z,100575.02
2019-05-12T07:27:09.320Z,100578.94
2019-05-12T07:29:37.118Z,100574.94
2019-05-12T07:32:07.207Z,100552.39
2019-05-12T07:34:34.706Z,100590.02
2019-05-12T07:37:04.391Z,100534.81
2019-05-12T07:39:37.043Z,100538.06
2019-05-12T07:42:04.432Z,100557.64
2019-05-12T07:44:39.697Z,100560.88
2019-05-12T07:47:03.599Z,100568.09
2019-05-12T07:49:35.213Z,100578.28
2019-05-12T07:52:03.608Z,100577.18
2019-05-12T07:54:37.358Z,100615.47
2019-05-12T07:57:05.374Z,100598.67
2019-05-12T07:59:38.858Z,100559.45
2019-05-12T08:02:00.622Z,100579.23
2019-05-12T08:04:31.661Z,100575.31
2019-05-12T08:06:58.046Z,100589.14
2019-05-12T08:09:32.544Z,100564.83
2019-05-12T08:11:57.068Z,100589.14
2019-05-12T08:14:29.355Z,100621.94
2019-05-12T08:16:55.233Z,100624.58
2019-05-12T08:19:25.477Z,100628.39
2019-05-12T08:21:53.804Z,100588.38
2019-05-12T08:24:23.684Z,100624.79
2019-05-12T08:26:59.567Z,100624.69
2019-05-12T08:29:24.293Z,100622.91
2019-05-12T08:31:54.850Z,100593.02
2019-05-12T08:34:23.771Z,100599.27
2019-05-12T08:36:57.794Z,100644.63
2019-05-12T08:39:25.346Z,100636.39
2019-05-12T08:41:53.369Z,100650.03
2019-05-12T08:44:24.653Z,100645.84
2019-05-12T08:46:53.464Z,100642.60
2019-05-12T08:49:20.148Z,100644.53
2019-05-12T08:51:49.515Z,100628.73
2019-05-12T08:54:17.616Z,100638.60
2019-05-12T08:56:45.390Z,100645.15
2019-05-12T08:59:15.577Z,100653.82
2019-05-12T09:01:43.841Z,100663.45
2019-05-12T09:04:17.339Z,100655.84
2019-05-12T09:06:43.465Z,100659.06
2019-05-12T09:09:13.837Z,100659.05
2019-05-12T09:11:41.293Z,100667.61
2019-05-12T09:14:11.243Z,100661.67
2019-05-12T09:16:41.279Z,100669.46
2019-05-12T09:19:10.047Z,100666.83
2019-05-12T09:21:38.900Z,100670.00
2019-05-12T09:24:06.722Z,100665.33
2019-05-12T09:26:34.608Z,100659.38
2019-05-12T09:29:03.472Z,100662.28
2019-05-12T09:31:34.232Z,100670.61
2019-05-12T09:34:05.983Z,100663.70
2019-05-12T09:36:33.899Z,100668.28
2019-05-12T09:39:02.963Z,100659.43
2019-05-12T09:41:34.310Z,100652.03
2019-05-12T09:44:01.735Z,100657.09
2019-05-12T09:46:34.357Z,100650.94
2019-05-12T09:49:00.425Z,100660.87
2019-05-12T09:51:32.933Z,100655.10
2019-05-12T09:53:58.433Z,100656.81
2019-05-12T09:56:30.587Z,100661.63
2019-05-12T09:59:02.011Z,100658.53
2019-05-12T10:01:29.190Z,100647.05
2019-05-12T10:03:57.744Z,100659.84
2019-05-12T10:06:25.496Z,100658.52
2019-05-12T10:08:54.908Z,100654.22
2019-05-12T10:11:23.679Z,100657.39
2019-05-12T10:13:51.558Z,100650.52
2019-05-12T10:16:19.375Z,100654.67
2019-05-12T10:18:51.104Z,100658.23
2019-05-12T10:21:17.588Z,100653.94
2019-05-12T10:23:45.578Z,100646.56
2019-05-12T10:26:14.788Z,100648.09
2019-05-12T10:28:51.770Z,100650.30
2019-05-12T10:31:18.327Z,100653.31
2019-05-12T10:33:48.984Z,100652.30
2019-05-12T10:36:15.132Z,100656.19
2019-05-12T10:38:43.506Z,100660.48
2019-05-12T10:41:12.988Z,100652.88
2019-05-12T10:43:43.191Z,100664.49
2019-05-12T10:46:13.069Z,100653.91
2019-05-12T10:48:40.548Z,100652.82
2019-05-12T10:51:08.331Z,100655.09
2019-05-12T10:53:36.140Z,100649.58
2019-05-12T10:56:03.900Z,100646.70
2019-05-12T10:58:33.599Z,100652.52
2019-05-12T11:01:05.236Z,100655.16
2019-05-12T11:03:31.172Z,100656.90
2019-05-12T11:06:02.724Z,100650.41
2019-05-12T11:08:28.655Z,100658.16
2019-05-12T11:11:01.208Z,100656.90
2019-05-12T11:13:26.339Z,100660.58
2019-05-12T11:15:54.632Z,100665.55
2019-05-12T11:18:26.099Z,100653.02
2019-05-12T11:20:54.207Z,100655.88
2019-05-12T11:23:27.612Z,100653.94
2019-05-12T11:25:55.456Z,100656.72
2019-05-12T11:28:24.421Z,100656.66
2019-05-12T11:30:52.465Z,100661.84
2019-05-12T11:33:20.570Z,100663.69
2019-05-12T11:35:50.700Z,100659.49
2019-05-12T11:38:18.506Z,100653.89
2019-05-12T11:40:46.308Z,100661.64
2019-05-12T11:43:14.576Z,100668.33
2019-05-12T11:45:44.148Z,100667.24
2019-05-12T11:48:14.298Z,100671.91
2019-05-12T11:50:49.471Z,100667.18
2019-05-12T11:53:17.099Z,100681.78
2019-05-12T11:55:44.891Z,100666.22
2019-05-12T11:58:12.699Z,100680.63
2019-05-12T12:00:44.106Z,100693.18
2019-05-12T12:03:13.033Z,100695.10
2019-05-12T12:05:43.718Z,100697.53
2019-05-12T12:08:11.379Z,100698.16
2019-05-12T12:10:40.027Z,100694.63
2019-05-12T12:13:07.933Z,100699.52
2019-05-12T12:15:35.762Z,100694.91
2019-05-12T12:18:12.791Z,100702.70
2019-05-12T12:20:33.720Z,100691.80
2019-05-12T12:23:06.536Z,100686.91
2019-05-12T12:25:33.883Z,100671.22
2019-05-12T12:28:01.342Z,100692.99
2019-05-12T12:30:29.094Z,100693.52
2019-05-12T12:33:00.295Z,100709.83
2019-05-12T12:35:27.678Z,100705.13
2019-05-12T12:37:55.509Z,100700.94
2019-05-12T12:40:23.308Z,100694.63
2019-05-12T12:42:51.204Z,100690.55
2019-05-12T12:45:25.311Z,100688.49
2019-05-12T12:47:54.045Z,100702.39
2019-05-12T12:50:26.297Z,100710.05
2019-05-12T12:52:53.410Z,100703.40
2019-05-12T12:55:23.304Z,100713.13
2019-05-12T12:57:51.006Z,100715.66
2019-05-12T13:00:29.914Z,100721.25
2019-05-12T13:02:49.492Z,100718.25
2019-05-12T13:05:17.302Z,100721.91
2019-05-12T13:07:45.118Z,100721.96
2019-05-12T13:10:14.372Z,100715.70
2019-05-12T13:12:43.789Z,100722.65
2019-05-12T13:15:14.280Z,100722.23
2019-05-12T13:17:42.126Z,100716.31
2019-05-12T13:20:12.295Z,100730.11
2019-05-12T13:22:44.404Z,100724.28
2019-05-12T13:25:14.031Z,100726.23
2019-05-12T13:27:41.760Z,100731.77
2019-05-12T13:30:16.275Z,100730.55
2019-05-12T13:32:40.100Z,100735.00
2019-05-12T13:35:09.788Z,100731.02
2019-05-12T13:37:38.149Z,100727.14
2019-05-12T13:40:06.221Z,100732.37
2019-05-12T13:42:35.895Z,100730.55
2019-05-12T13:45:04.241Z,100725.13
2019-05-12T13:47:35.307Z,100724.76
2019-05-12T13:50:03.980Z,100726.62
2019-05-12T13:52:33.292Z,100727.28
2019-05-12T13:55:05.535Z,100731.16
2019-05-12T13:57:31.018Z,100730.52
2019-05-12T14:00:06.803Z,100730.80
2019-05-12T14:02:28.504Z,100722.71
2019-05-12T14:05:00.421Z,100719.34
2019-05-12T14:07:26.048Z,100723.73
2019-05-12T14:09:53.780Z,100729.66
2019-05-12T14:12:21.882Z,100728.16
2019-05-12T14:14:49.597Z,100738.63
2019-05-12T14:20:58.920Z,100727.11
2019-05-12T14:23:21.046Z,100719.19
2019-05-12T14:25:48.836Z,100718.83
2019-05-12T14:28:16.851Z,100731.19
2019-05-12T14:30:47.359Z,100726.38
2019-05-12T14:33:14.511Z,100727.12
2019-05-12T14:35:45.417Z,100724.23
2019-05-12T14:38:14.117Z,100721.46
2019-05-12T14:40:41.836Z,100716.66
2019-05-12T14:43:10.329Z,100724.13
2019-05-12T14:45:39.332Z,100719.50
2019-05-12T14:48:09.301Z,100725.15
2019-05-12T14:50:36.983Z,100714.07
2019-05-12T14:53:04.817Z,100717.02
2019-05-12T14:55:33.760Z,100716.80
2019-05-12T14:58:03.571Z,100724.78
2019-05-12T15:00:34.003Z,100718.66
2019-05-12T15:03:07.095Z,100721.04
2019-05-12T15:05:30.758Z,100725.63
2019-05-12T15:08:00.523Z,100728.91
2019-05-12T15:10:28.466Z,100732.45
2019-05-12T15:12:56.290Z,100729.95
2019-05-12T15:15:24.334Z,100741.17
2019-05-12T15:17:56.612Z,100734.21
2019-05-12T15:20:23.969Z,100738.55
2019-05-12T15:22:54.918Z,100739.42
2019-05-12T15:25:21.382Z,100754.41
2019-05-12T15:27:49.258Z,100754.11
2019-05-12T15:30:23.147Z,100749.31
2019-05-12T15:32:46.818Z,100755.45
2019-05-12T15:35:18.337Z,100756.17
2019-05-12T15:37:46.554Z,100754.23
2019-05-12T15:40:14.811Z,100758.80
2019-05-12T15:42:45.145Z,100755.12
2019-05-12T15:45:16.666Z,100769.64
2019-05-12T15:47:44.562Z,100778.27
2019-05-12T15:50:14.725Z,100775.02
2019-05-12T15:52:45.389Z,100775.93
2019-05-12T15:55:13.677Z,100777.53
2019-05-12T15:57:43.814Z,100788.60
2019-05-12T16:00:13.878Z,100790.11
2019-05-12T16:02:44.306Z,100789.18
2019-05-12T16:05:14.645Z,100794.33
2019-05-12T16:07:43.629Z,100797.59
2019-05-12T16:10:14.464Z,100800.22
2019-05-12T16:12:43.444Z,100802.06
2019-05-12T16:15:17.201Z,100792.98
2019-05-12T16:17:44.037Z,100795.24
2019-05-12T16:20:14.250Z,100801.33
2019-05-12T16:22:45.239Z,100801.68
2019-05-12T16:25:15.355Z,100804.84
2019-05-12T16:27:44.430Z,100816.30
2019-05-12T16:30:46.885Z,100819.36
2019-05-12T16:33:20.481Z,100816.67
2019-05-12T16:35:44.175Z,100815.56
2019-05-12T16:38:18.393Z,100819.03
2019-05-12T16:40:45.552Z,100826.84
2019-05-12T16:43:11.661Z,100829.13
2019-05-12T16:45:39.478Z,100829.72
2019-05-12T16:48:11.320Z,100831.48
2019-05-12T16:50:36.999Z,100836.94
2019-05-12T16:53:04.819Z,100835.70
2019-05-12T16:55:44.733Z,100825.27
2019-05-12T16:58:04.015Z,100832.27
2019-05-12T17:00:33.836Z,100836.95
2019-05-12T17:03:03.734Z,100838.70
2019-05-12T17:05:33.438Z,100848.08
2019-05-12T17:08:01.239Z,100856.68
2019-05-12T17:10:29.017Z,100862.61
2019-05-12T17:12:56.857Z,100864.41
2019-05-12T17:15:24.619Z,100865.17
2019-05-12T17:17:56.975Z,100869.77
2019-05-12T17:20:22.146Z,100865.22
2019-05-12T17:22:54.594Z,100868.86
2019-05-12T17:25:19.636Z,100875.75
2019-05-12T17:27:47.524Z,100876.70
2019-05-12T17:30:16.053Z,100845.66
2019-05-12T17:32:57.068Z,100881.25
2019-05-12T17:35:14.755Z,100888.30
2019-05-12T17:37:42.889Z,100889.74
2019-05-12T17:40:15.585Z,100893.52
2019-05-12T17:42:40.984Z,100894.25
2019-05-12T17:45:15.825Z,100895.59
2019-05-12T17:47:40.180Z,100899.60
2019-05-12T17:50:10.397Z,100905.28
2019-05-12T17:52:38.419Z,100907.47
2019-05-12T17:55:10.535Z,100911.27
2019-05-12T17:57:36.870Z,100913.76
2019-05-12T18:00:10.456Z,100920.06
2019-05-12T18:02:35.898Z,100922.86
2019-05-12T18:05:09.913Z,100922.52
2019-05-12T18:07:34.782Z,100926.17
2019-05-12T18:10:04.163Z,100931.42
2019-05-12T18:12:36.668Z,100928.41
2019-05-12T18:15:04.206Z,100936.51
2019-05-12T18:17:33.882Z,100935.95
2019-05-12T18:20:04.183Z,100940.77
2019-05-12T18:22:33.957Z,100945.84
2019-05-12T18:25:04.086Z,100949.80
2019-05-12T18:27:43.225Z,100949.77
2019-05-12T18:30:24.080Z,100958.83
2019-05-12T18:32:57.672Z,100962.24
2019-05-12T18:35:22.037Z,100967.97
2019-05-12T18:37:50.091Z,100971.20
2019-05-12T18:40:17.905Z,100979.05
2019-05-12T18:42:50.251Z,100983.33
2019-05-12T18:45:23.790Z,100988.81
2019-05-12T18:47:53.825Z,100996.27
2019-05-12T18:50:27.095Z,100999.58
2019-05-12T18:52:53.313Z,101004.20
2019-05-12T18:55:23.365Z,101005.84
2019-05-12T18:57:51.003Z,101005.69
2019-05-12T19:00:23.005Z,101009.36
2019-05-12T19:02:51.332Z,101016.39
2019-05-12T19:05:29.713Z,101017.35
2019-05-12T19:07:48.994Z,101024.27
2019-05-12T19:10:23.964Z,101027.74
2019-05-12T19:13:00.791Z,101026.19
2019-05-12T19:15:22.070Z,101034.78
2019-05-12T19:17:50.126Z,101034.09
2019-05-12T19:20:19.818Z,101033.44
2019-05-12T19:22:56.110Z,101036.56
2019-05-12T19:25:19.452Z,101044.10
2019-05-12T19:27:55.021Z,101046.06
2019-05-12T19:30:24.487Z,101052.00
2019-05-12T19:32:47.352Z,101057.49
2019-05-12T19:35:20.042Z,101062.91
2019-05-12T19:37:45.377Z,101064.45
2019-05-12T19:40:17.393Z,101070.00
2019-05-12T19:42:44.577Z,101072.56
2019-05-12T19:45:21.323Z,101074.49
2019-05-12T19:47:44.250Z,101082.40
2019-05-12T19:50:17.607Z,101078.66
2019-05-12T19:52:42.755Z,101077.52
2019-05-12T19:55:13.997Z,101083.94
2019-05-12T19:57:44.247Z,101085.28
2019-05-12T20:00:13.905Z,101086.45
2019-05-12T20:02:42.061Z,101091.05
2019-05-12T20:05:10.267Z,101091.75
2019-05-12T20:07:38.110Z,101096.28
2019-05-12T20:10:06.221Z,101108.33
2019-05-12T20:12:34.661Z,101114.09
2019-05-12T20:15:04.025Z,101115.20
2019-05-12T20:17:33.938Z,101115.67
2019-05-12T20:20:05.502Z,101111.01
2019-05-12T20:22:33.550Z,101114.57
2019-05-12T20:25:04.041Z,101118.64
2019-05-12T20:27:34.308Z,101122.41
2019-05-12T20:30:08.823Z,101122.36
2019-05-12T20:32:31.241Z,101123.86
2019-05-12T20:34:59.123Z,101125.23
2019-05-12T20:37:26.923Z,101124.61
2019-05-12T20:40:02.095Z,101121.53
2019-05-12T20:42:27.435Z,101122.90
2019-05-12T20:44:57.854Z,101117.83
2019-05-12T20:47:24.937Z,101123.19
2019-05-12T20:49:57.982Z,101123.94
2019-05-12T20:52:25.740Z,101132.33
2019-05-12T20:54:57.668Z,101127.52
2019-05-12T20:57:23.754Z,101133.83
2019-05-12T20:59:51.757Z,101137.52
2019-05-12T21:02:19.621Z,101138.30
2019-05-12T21:05:00.074Z,101142.20
2019-05-12T21:07:22.144Z,101138.27
2019-05-12T21:09:46.805Z,101138.45
2019-05-12T21:12:14.605Z,101146.61
2019-05-12T21:14:51.217Z,101144.68
2019-05-12T21:17:15.868Z,101154.96
2019-05-12T21:19:55.666Z,101157.95
2019-05-12T21:22:14.280Z,101157.48
2019-05-12T21:24:43.837Z,101161.70
2019-05-12T21:27:15.740Z,101159.30
2019-05-12T21:29:43.725Z,101158.28
2019-05-12T21:32:14.433Z,101164.95
2019-05-12T21:34:44.116Z,101164.22
2019-05-12T21:37:14.018Z,101169.98
2019-05-12T21:39:46.861Z,101166.80
2019-05-12T21:42:11.563Z,101164.89
2019-05-12T21:44:41.434Z,101170.38
2019-05-12T21:47:34.007Z,101176.66
2019-05-12T21:49:58.140Z,101180.98
2019-05-12T21:52:25.875Z,101180.22
2019-05-12T21:54:55.483Z,101185.98
2019-05-12T21:57:27.487Z,101185.73
2019-05-12T21:59:55.566Z,101191.59
2019-05-12T22:02:28.998Z,101194.23
2019-05-12T22:04:53.259Z,101198.70
2019-05-12T22:07:23.890Z,101200.44
2019-05-12T22:09:53.820Z,101199.25
2019-05-12T22:12:23.378Z,101208.34
2019-05-12T22:14:54.298Z,101213.89
2019-05-12T22:17:23.863Z,101215.52
2019-05-12T22:19:53.557Z,101214.02
2019-05-12T22:22:25.698Z,101211.19
2019-05-12T22:24:50.943Z,101216.23
2019-05-12T22:27:22.875Z,101214.32
2019-05-12T22:29:48.738Z,101218.00
2019-05-12T22:32:19.013Z,101222.81
2019-05-12T22:34:46.190Z,101225.73
2019-05-12T22:37:13.975Z,101226.33
2019-05-12T22:39:44.384Z,101224.75
2019-05-12T22:42:20.163Z,101227.93
2019-05-12T22:44:43.782Z,101230.32
2019-05-12T22:47:13.662Z,101229.17
2019-05-12T22:49:41.465Z,101235.39
2019-05-12T22:52:09.329Z,101229.98
2019-05-12T22:54:40.537Z,101237.91
2019-05-12T22:57:06.777Z,101237.57
2019-05-12T22:59:40.444Z,101237.44
2019-05-12T23:02:04.638Z,101234.49
2019-05-12T23:04:35.439Z,101238.70
2019-05-12T23:07:02.412Z,101243.80
2019-05-12T23:09:30.519Z,101242.81
2019-05-12T23:11:58.405Z,101237.02
2019-05-12T23:14:26.169Z,101236.33
2019-05-12T23:16:54.544Z,101242.66
2019-05-12T23:19:23.527Z,101241.64
2019-05-12T23:21:55.596Z,101240.03
2019-05-12T23:24:23.518Z,101242.30
2019-05-12T23:26:50.943Z,101242.03
2019-05-12T23:29:20.470Z,101241.50
2019-05-12T23:31:48.462Z,101241.62
2019-05-12T23:34:16.233Z,101242.45
2019-05-12T23:36:44.121Z,101242.25
2019-05-12T23:39:14.136Z,101242.72
2019-05-12T23:41:43.709Z,101243.34
2019-05-12T23:44:13.485Z,101241.43
2019-05-12T23:46:43.607Z,101243.70
2019-05-12T23:49:10.911Z,101242.64
2019-05-12T23:51:38.692Z,101241.73
2019-05-12T23:54:06.857Z,101242.99
2019-05-12T23:56:34.651Z,101244.08
2019-05-12T23:59:04.556Z,101243.94
